createdAt,value
2024-04-15T00:02:24.161Z,19.93
2024-04-15T00:07:26.088Z,19.92
2024-04-15T00:12:28.000Z,19.91
2024-04-15T00:17:29.836Z,19.87
2024-04-15T00:22:31.663Z,19.86
2024-04-15T00:27:33.392Z,19.85
2024-04-15T00:32:35.164Z,19.85
2024-04-15T00:37:36.959Z,19.86
2024-04-15T00:42:38.802Z,19.84
2024-04-15T00:47:40.625Z,19.83
2024-04-15T00:52:42.413Z,19.80
2024-04-15T00:57:45.088Z,19.75
2024-04-15T01:02:48.108Z,19.72
2024-04-15T01:07:50.335Z,19.68
2024-04-15T01:12:52.737Z,19.64
2024-04-15T01:17:54.534Z,19.62
2024-04-15T01:23:02.448Z,19.60
2024-04-15T01:28:04.694Z,19.57
2024-04-15T01:33:06.991Z,19.50
2024-04-15T01:38:09.010Z,19.44
2024-04-15T01:43:11.129Z,19.41
2024-04-15T01:48:13.227Z,19.39
2024-04-15T01:53:15.276Z,19.35
2024-04-15T01:58:17.379Z,19.32
2024-04-15T02:03:19.484Z,19.22
2024-04-15T02:08:21.516Z,19.19
2024-04-15T02:13:23.651Z,19.05
2024-04-15T02:18:25.869Z,18.86
2024-04-15T02:23:28.068Z,18.71
2024-04-15T02:28:30.232Z,18.63
2024-04-15T02:33:32.529Z,18.46
2024-04-15T02:38:34.562Z,18.37
2024-04-15T02:43:36.400Z,18.28
2024-04-15T02:48:38.931Z,18.26
2024-04-15T02:53:40.908Z,18.23
2024-04-15T02:58:42.888Z,18.15
2024-04-15T03:03:46.744Z,18.13
2024-04-15T03:08:48.824Z,18.09
2024-04-15T03:13:51.105Z,18.11
2024-04-15T03:18:53.302Z,18.03
2024-04-15T03:23:55.428Z,18.04
2024-04-15T03:28:57.412Z,18.12
2024-04-15T03:33:59.403Z,18.18
2024-04-15T03:39:01.468Z,18.22
2024-04-15T03:44:03.704Z,18.26
2024-04-15T03:49:09.118Z,18.28
2024-04-15T03:54:11.001Z,18.29
2024-04-15T03:59:12.943Z,18.30
2024-04-15T04:04:16.793Z,18.29
2024-04-15T04:09:18.860Z,18.29
2024-04-15T04:14:20.837Z,18.27
2024-04-15T04:19:27.080Z,18.31
2024-04-15T04:24:30.870Z,18.34
2024-04-15T04:29:36.024Z,18.34
2024-04-15T04:34:38.031Z,18.36
2024-04-15T04:39:40.020Z,18.37
2024-04-15T04:44:42.009Z,18.35
2024-04-15T04:49:44.000Z,18.34
2024-04-15T04:54:46.403Z,18.32
2024-04-15T04:59:53.164Z,18.28
2024-04-15T05:04:55.415Z,18.27
2024-04-15T05:09:57.582Z,18.25
2024-04-15T05:14:59.666Z,18.23
2024-04-15T05:20:02.189Z,18.22
2024-04-15T05:25:04.578Z,18.21
2024-04-15T05:30:07.330Z,18.16
2024-04-15T05:35:10.342Z,18.14
2024-04-15T05:40:12.386Z,18.10
2024-04-15T05:45:14.552Z,18.04
2024-04-15T05:50:17.111Z,17.96
2024-04-15T05:55:19.616Z,17.89
2024-04-15T06:00:23.164Z,17.87
2024-04-15T06:05:26.749Z,17.81
2024-04-15T06:10:29.525Z,17.80
2024-04-15T06:15:38.866Z,17.80
2024-04-15T06:20:42.912Z,17.76
2024-04-15T06:25:51.243Z,17.67
2024-04-15T06:30:55.180Z,17.60
2024-04-15T06:35:57.628Z,17.46
2024-04-15T06:41:01.211Z,17.35
2024-04-15T06:46:03.083Z,17.28
2024-04-15T06:51:06.030Z,17.31
2024-04-15T06:56:09.547Z,17.36
2024-04-15T07:01:11.781Z,17.37
2024-04-15T07:06:14.019Z,17.33
2024-04-15T07:11:16.173Z,17.24
2024-04-15T07:16:18.721Z,17.09
2024-04-15T07:21:23.531Z,17.04
2024-04-15T07:26:26.019Z,16.87
2024-04-15T07:31:28.284Z,16.73
2024-04-15T07:36:30.858Z,16.75
2024-04-15T07:41:34.551Z,16.83
2024-04-15T07:46:36.555Z,16.77
2024-04-15T07:51:39.422Z,16.81
2024-04-15T07:56:41.888Z,16.78
2024-04-15T08:01:44.250Z,16.73
2024-04-15T08:06:53.913Z,16.67
2024-04-15T08:12:15.297Z,16.67
2024-04-15T08:17:21.188Z,16.60
2024-04-15T08:22:23.937Z,16.68
2024-04-15T08:27:25.739Z,16.74
2024-04-15T08:32:28.028Z,16.76
2024-04-15T08:37:30.162Z,16.85
2024-04-15T08:42:48.430Z,16.87
2024-04-15T08:47:54.699Z,16.86
2024-04-15T08:52:57.156Z,16.93
2024-04-15T08:58:01.273Z,17.01
2024-04-15T09:03:04.025Z,17.03
2024-04-15T09:08:06.205Z,17.02
2024-04-15T09:13:11.224Z,17.07
2024-04-15T09:18:13.398Z,17.09
2024-04-15T09:23:16.390Z,17.16
2024-04-15T09:28:18.184Z,17.14
2024-04-15T09:33:23.057Z,17.06
2024-04-15T09:38:26.038Z,16.88
2024-04-15T09:43:29.587Z,16.82
2024-04-15T09:48:33.112Z,16.88
2024-04-15T09:53:43.104Z,17.01
2024-04-15T09:58:46.102Z,17.11
2024-04-15T10:03:52.914Z,17.21
2024-04-15T10:08:56.859Z,17.15
2024-04-15T10:13:58.965Z,17.01
2024-04-15T10:19:00.700Z,16.99
2024-04-15T10:24:05.882Z,16.98
2024-04-15T10:29:22.969Z,17.05
2024-04-15T10:34:26.876Z,17.17
2024-04-15T10:39:29.322Z,17.24
2024-04-15T10:44:31.379Z,17.32
2024-04-15T10:49:33.515Z,17.37
2024-04-15T10:54:37.431Z,17.45
2024-04-15T10:59:42.134Z,17.51
2024-04-15T11:04:44.144Z,17.57
2024-04-15T11:09:45.973Z,17.54
2024-04-15T11:14:54.532Z,17.47
2024-04-15T11:20:14.769Z,17.38
2024-04-15T11:25:53.933Z,17.47
2024-04-15T11:31:17.847Z,17.49
2024-04-15T11:36:33.972Z,17.53
2024-04-15T11:41:46.910Z,17.55
2024-04-15T11:46:57.800Z,17.52
2024-04-15T11:52:14.170Z,17.64
2024-04-15T11:57:29.400Z,17.80
2024-04-15T12:02:52.274Z,17.81
2024-04-15T12:08:01.417Z,17.65
2024-04-15T12:13:12.360Z,17.72
2024-04-15T12:18:25.517Z,17.84
2024-04-15T12:23:31.989Z,17.85
2024-04-15T12:28:34.054Z,17.81
2024-04-15T12:33:37.518Z,17.88
2024-04-15T12:38:39.916Z,18.01
2024-04-15T12:43:42.585Z,18.06
2024-04-15T12:48:44.971Z,18.07
2024-04-15T12:53:47.870Z,18.02
2024-04-15T12:58:50.193Z,18.09
2024-04-15T13:03:52.844Z,18.04
2024-04-15T13:08:55.096Z,18.02
2024-04-15T13:13:57.760Z,17.95
2024-04-15T13:19:01.668Z,18.00
2024-04-15T13:24:03.817Z,17.96
2024-04-15T13:29:07.074Z,17.84
2024-04-15T13:34:09.734Z,17.79
2024-04-15T13:39:12.129Z,17.76
2024-04-15T13:44:14.975Z,17.83
2024-04-15T13:49:22.112Z,17.87
2024-04-15T13:54:27.289Z,17.84
2024-04-15T13:59:31.132Z,17.82
2024-04-15T14:04:33.799Z,17.71
2024-04-15T14:09:35.927Z,17.64
2024-04-15T14:14:39.056Z,17.57
2024-04-15T14:19:41.856Z,17.49
2024-04-15T14:24:43.857Z,17.52
2024-04-15T14:29:46.850Z,17.57
2024-04-15T14:34:52.916Z,17.58
2024-04-15T14:40:07.512Z,17.67
2024-04-15T14:45:15.036Z,17.73
2024-04-15T14:50:17.055Z,17.79
2024-04-15T14:55:19.433Z,17.83
2024-04-15T15:00:22.346Z,17.87
2024-04-15T15:05:24.722Z,17.86
2024-04-15T15:10:27.685Z,17.86
2024-04-15T15:15:30.535Z,17.83
2024-04-15T15:20:33.022Z,17.76
2024-04-15T15:25:35.603Z,17.72
2024-04-15T15:30:37.862Z,17.60
2024-04-15T15:35:40.246Z,17.55
2024-04-15T15:40:42.303Z,17.50
2024-04-15T15:45:47.537Z,17.40
2024-04-15T15:50:50.744Z,17.30
2024-04-15T15:55:52.820Z,17.25
2024-04-15T16:00:55.345Z,17.23
2024-04-15T16:05:58.393Z,17.28
2024-04-15T16:11:01.174Z,17.33
2024-04-15T16:16:04.649Z,17.35
2024-04-15T16:21:07.601Z,17.50
2024-04-15T16:26:10.041Z,17.67
2024-04-15T16:31:16.260Z,17.92
2024-04-15T16:36:18.224Z,18.09
2024-04-15T16:41:20.005Z,18.03
2024-04-15T16:46:24.170Z,18.17
2024-04-15T16:51:26.631Z,18.24
2024-04-15T16:56:28.896Z,18.34
2024-04-15T17:01:30.863Z,18.33
2024-04-15T17:06:33.282Z,18.32
2024-04-15T17:11:35.865Z,18.22
2024-04-15T17:16:37.866Z,18.12
2024-04-15T17:21:40.144Z,18.07
2024-04-15T17:26:42.947Z,17.88
2024-04-15T17:31:44.991Z,17.57
2024-04-15T17:36:47.224Z,17.39
2024-04-15T17:41:49.079Z,17.29
2024-04-15T17:46:52.131Z,17.19
2024-04-15T17:51:54.229Z,17.08
2024-04-15T17:56:56.666Z,17.01
2024-04-15T18:01:58.515Z,16.94
2024-04-15T18:07:00.582Z,16.93
2024-04-15T18:12:05.342Z,16.98
2024-04-15T18:17:09.786Z,16.96
2024-04-15T18:22:12.047Z,16.95
2024-04-15T18:27:14.264Z,16.95
2024-04-15T18:32:16.169Z,16.96
2024-04-15T18:37:19.934Z,16.94
2024-04-15T18:42:22.089Z,16.92
2024-04-15T18:47:24.376Z,16.93
2024-04-15T18:52:26.270Z,16.93
2024-04-15T18:57:28.138Z,16.94
2024-04-15T19:02:31.147Z,16.83
2024-04-15T19:07:33.146Z,16.74
2024-04-15T19:12:35.079Z,16.55
2024-04-15T19:17:37.759Z,16.39
2024-04-15T19:22:39.842Z,16.19
2024-04-15T19:27:41.963Z,15.97
2024-04-15T19:32:43.884Z,15.82
2024-04-15T19:37:45.829Z,15.64
2024-04-15T19:42:47.656Z,15.52
2024-04-15T19:47:53.559Z,15.37
2024-04-15T19:52:55.388Z,15.21
2024-04-15T19:57:57.069Z,15.14
2024-04-15T20:02:58.938Z,14.86
2024-04-15T20:08:09.034Z,14.81
2024-04-15T20:13:15.108Z,14.77
2024-04-15T20:18:34.510Z,14.77
2024-04-15T20:23:37.944Z,14.52
2024-04-15T20:28:39.891Z,14.61
2024-04-15T20:33:42.112Z,14.60
2024-04-15T20:38:45.040Z,14.51
2024-04-15T20:43:47.339Z,14.11
2024-04-15T20:48:49.505Z,13.27
2024-04-15T20:53:51.284Z,12.58
2024-04-15T20:58:53.333Z,12.11
2024-04-15T21:03:55.582Z,11.74
2024-04-15T21:08:58.001Z,11.33
2024-04-15T21:14:00.653Z,10.99
2024-04-15T21:19:02.517Z,10.89
2024-04-15T21:24:04.919Z,10.91
2024-04-15T21:29:07.294Z,10.81
2024-04-15T21:34:09.623Z,10.45
2024-04-15T21:39:11.993Z,10.04
2024-04-15T21:44:14.168Z,9.92
2024-04-15T21:49:17.073Z,9.77
2024-04-15T21:54:19.851Z,9.79
2024-04-15T21:59:21.736Z,9.80
2024-04-15T22:04:23.677Z,9.60
2024-04-15T22:09:25.815Z,9.52
2024-04-15T22:14:29.685Z,9.43
2024-04-15T22:19:32.485Z,9.35
2024-04-15T22:24:34.835Z,9.22
2024-04-15T22:29:36.763Z,9.21
2024-04-15T22:34:38.964Z,9.18
2024-04-15T22:39:41.137Z,9.19
2024-04-15T22:44:42.938Z,9.21
2024-04-15T22:49:44.915Z,9.11
2024-04-15T22:54:46.978Z,9.03
2024-04-15T22:59:48.950Z,9.06
2024-04-15T23:04:50.720Z,9.05
2024-04-15T23:09:52.970Z,8.97
2024-04-15T23:14:54.745Z,8.88
2024-04-15T23:19:56.833Z,8.92
2024-04-15T23:24:58.548Z,8.66
2024-04-15T23:30:00.308Z,8.74
2024-04-15T23:35:02.071Z,8.80
2024-04-15T23:40:04.100Z,8.76
2024-04-15T23:45:06.459Z,8.81
2024-04-15T23:50:27.414Z,8.79
2024-04-15T23:55:47.614Z,8.82
